Time;durP1;ratioP1;P1;durP2;ratioP2;P2;SDS_P1;SDS_P2;PMS_P1;PMS_P2;Temp;Humidity;BMP_temperature;BMP_pressure;BME280_temperature;BME280_humidity;BME280_pressure;Samples;Min_cycle;Max_cycle;Signal;HPM_P1;HPM_P2
2022/06/18 00:00:02;;;;;;;7.75;4.30;;;;;;;;;;7330543;19;162353;-17
2022/06/18 00:02:41;;;;;;;12.00;4.38;;;;;;;;;;7331769;19;153966;-16
2022/06/18 00:05:15;;;;;;;8.70;5.05;;;;;;;;;;7329894;19;153545;-16
2022/06/18 00:07:49;;;;;;;7.00;4.30;;;;;;;;;;7329370;19;161826;-16
2022/06/18 00:10:27;;;;;;;7.78;4.35;;;;;;;;;;7328851;19;162609;-15
2022/06/18 00:15:43;;;;;;;8.18;5.45;;;;;;;;;;7331522;19;153587;-17
2022/06/18 00:18:16;;;;;;;11.02;5.80;;;;;;;;;;7329657;19;161562;-17
2022/06/18 00:20:47;;;;;;;14.98;5.55;;;;;;;;;;7329785;19;162316;-17
2022/06/18 00:23:20;;;;;;;16.67;6.32;;;;;;;;;;7330305;19;154044;-17
2022/06/18 00:25:55;;;;;;;10.68;5.65;;;;;;;;;;7330254;19;153725;-17
2022/06/18 00:28:28;;;;;;;7.63;5.20;;;;;;;;;;7329565;19;161912;-17
2022/06/18 00:31:00;;;;;;;8.70;5.85;;;;;;;;;;7328917;19;162345;-16
2022/06/18 00:33:32;;;;;;;11.13;5.83;;;;;;;;;;7329797;19;154096;-17
2022/06/18 00:36:07;;;;;;;9.43;5.45;;;;;;;;;;7329947;19;153615;-16
2022/06/18 00:38:42;;;;;;;7.72;5.68;;;;;;;;;;7329752;19;162099;-17
2022/06/18 00:41:19;;;;;;;11.60;5.90;;;;;;;;;;7329459;19;162479;-16
2022/06/18 00:43:54;;;;;;;6.00;4.82;;;;;;;;;;7328735;19;154042;-16
2022/06/18 00:46:32;;;;;;;8.80;5.38;;;;;;;;;;7329400;19;153611;-17
2022/06/18 00:49:07;;;;;;;8.07;5.03;;;;;;;;;;7328283;19;161877;-17
2022/06/18 00:51:44;;;;;;;8.38;5.38;;;;;;;;;;7329327;19;162487;-16
2022/06/18 00:54:22;;;;;;;8.27;5.28;;;;;;;;;;7328685;19;154123;-17
2022/06/18 00:57:05;;;;;;;6.65;4.80;;;;;;;;;;7328571;19;153557;-16
2022/06/18 00:59:43;;;;;;;7.13;6.00;;;;;;;;;;7329218;19;162073;-16
2022/06/18 01:02:20;;;;;;;8.20;5.65;;;;;;;;;;7329197;19;162460;-16
2022/06/18 01:04:52;;;;;;;8.70;4.90;;;;;;;;;;7329304;19;154085;-17
2022/06/18 01:07:27;;;;;;;;;;;;;;;;;;7328634;19;153552;-17
2022/06/18 01:09:59;;;;;;;6.60;4.80;;;;;;;;;;7327651;19;162297;-16
2022/06/18 01:12:33;;;;;;;6.35;4.70;;;;;;;;;;7327399;19;162376;-17
2022/06/18 01:15:08;;;;;;;9.63;5.22;;;;;;;;;;7326179;19;154125;-17
2022/06/18 01:17:47;;;;;;;10.32;5.50;;;;;;;;;;7325138;19;153522;-16
2022/06/18 01:20:19;;;;;;;9.95;5.32;;;;;;;;;;7327218;19;162048;-16
2022/06/18 01:22:59;;;;;;;5.70;4.80;;;;;;;;;;7328007;19;162599;-16
2022/06/18 01:25:33;;;;;;;8.10;5.07;;;;;;;;;;7327498;19;154238;-17
2022/06/18 01:28:05;;;;;;;7.43;4.65;;;;;;;;;;7328585;19;153460;-17
2022/06/18 01:30:41;;;;;;;7.40;4.78;;;;;;;;;;7326868;19;161885;-17
2022/06/18 01:33:18;;;;;;;8.15;5.20;;;;;;;;;;7327023;19;162434;-16
2022/06/18 01:35:55;;;;;;;9.13;4.82;;;;;;;;;;7325046;19;154106;-17
2022/06/18 01:38:30;;;;;;;8.27;4.90;;;;;;;;;;7327149;19;153656;-16
2022/06/18 01:44:00;;;;;;;7.22;4.72;;;;;;;;;;7333047;19;162740;-17
2022/06/18 01:46:35;;;;;;;7.70;5.13;;;;;;;;;;7335234;19;154134;-17
2022/06/18 01:49:12;;;;;;;9.60;5.63;;;;;;;;;;7333682;19;153868;-17
2022/06/18 01:51:48;;;;;;;8.85;5.03;;;;;;;;;;7334892;19;161824;-16
2022/06/18 01:54:32;;;;;;;6.38;4.70;;;;;;;;;;7333192;19;162529;-19
2022/06/18 01:57:25;;;;;;;6.43;5.07;;;;;;;;;;7333962;19;154070;-18
2022/06/18 02:00:00;;;;;;;7.93;4.60;;;;;;;;;;7334919;19;153669;-18
2022/06/18 02:02:45;;;;;;;5.10;4.60;;;;;;;;;;7334671;19;162155;-18
2022/06/18 02:05:19;;;;;;;6.82;4.95;;;;;;;;;;7333242;19;162581;-18
2022/06/18 02:07:52;;;;;;;8.48;4.75;;;;;;;;;;7334850;19;154129;-18
2022/06/18 02:10:28;;;;;;;7.80;4.93;;;;;;;;;;7334699;19;153815;-18
2022/06/18 02:13:06;;;;;;;7.65;5.00;;;;;;;;;;7334283;19;161595;-20
2022/06/18 02:15:43;;;;;;;7.05;5.50;;;;;;;;;;7332668;19;162624;-18
2022/06/18 02:18:18;;;;;;;7.45;5.20;;;;;;;;;;7334471;19;154082;-19
2022/06/18 02:20:54;;;;;;;6.22;5.00;;;;;;;;;;7334650;19;153577;-18
2022/06/18 02:23:27;;;;;;;9.10;4.82;;;;;;;;;;7333069;19;161910;-18
2022/06/18 02:25:59;;;;;;;5.03;4.47;;;;;;;;;;7332961;19;162631;-18
2022/06/18 02:28:38;;;;;;;5.18;4.65;;;;;;;;;;7333475;19;153965;-19
2022/06/18 02:31:17;;;;;;;13.68;4.90;;;;;;;;;;7333329;19;153725;-18
2022/06/18 02:33:52;;;;;;;6.43;4.57;;;;;;;;;;7332701;19;162099;-18
2022/06/18 02:36:26;;;;;;;6.32;4.22;;;;;;;;;;7332056;19;162347;-19
2022/06/18 02:39:03;;;;;;;6.65;4.40;;;;;;;;;;7333110;19;154422;-19
2022/06/18 02:41:35;;;;;;;6.80;5.10;;;;;;;;;;7333036;19;153636;-19
2022/06/18 02:44:11;;;;;;;5.73;4.47;;;;;;;;;;7333763;19;162160;-19
2022/06/18 02:46:44;;;;;;;6.20;4.95;;;;;;;;;;7333490;19;162578;-18
2022/06/18 02:49:17;;;;;;;5.57;4.55;;;;;;;;;;7332352;19;154372;-18
2022/06/18 02:51:49;;;;;;;5.28;4.57;;;;;;;;;;7333330;19;153681;-24
2022/06/18 02:54:22;;;;;;;5.18;4.22;;;;;;;;;;7331985;19;162071;-18
2022/06/18 02:56:53;;;;;;;6.63;5.10;;;;;;;;;;7329883;19;162556;-18
2022/06/18 02:59:30;;;;;;;6.25;4.32;;;;;;;;;;7333534;19;154255;-18
2022/06/18 03:02:03;;;;;;;6.10;4.30;;;;;;;;;;7332075;19;153615;-18
2022/06/18 03:04:35;;;;;;;6.93;4.53;;;;;;;;;;7331726;19;162077;-19
2022/06/18 03:07:07;;;;;;;6.60;4.68;;;;;;;;;;7331621;19;162399;-18
2022/06/18 03:12:06;;;;;;;6.65;4.72;;;;;;;;;;7331828;19;153935;-17
2022/06/18 03:12:27;;;;;;;5.60;4.75;;;;;;;;;;7331710;19;153531;-18
2022/06/18 03:15:00;;;;;;;6.53;4.57;;;;;;;;;;7331683;19;162216;-18
2022/06/18 03:17:31;;;;;;;7.90;4.80;;;;;;;;;;7328922;19;162566;-18
2022/06/18 03:20:12;;;;;;;4.80;4.18;;;;;;;;;;7331914;19;153986;-18
2022/06/18 03:22:44;;;;;;;6.25;4.38;;;;;;;;;;7332401;19;153701;-18
2022/06/18 03:25:15;;;;;;;6.00;4.50;;;;;;;;;;7330803;19;161889;-18
2022/06/18 03:27:46;;;;;;;7.65;4.93;;;;;;;;;;7332119;19;162499;-18
2022/06/18 03:30:20;;;;;;;5.55;4.78;;;;;;;;;;7332517;19;154012;-18
2022/06/18 03:32:51;;;;;;;6.75;4.43;;;;;;;;;;7331110;19;153560;-18
2022/06/18 03:35:22;;;;;;;6.72;4.65;;;;;;;;;;7330408;19;161794;-18
2022/06/18 03:37:53;;;;;;;5.28;4.53;;;;;;;;;;7330977;19;162412;-18
2022/06/18 03:40:25;;;;;;;5.97;4.63;;;;;;;;;;7331027;19;154087;-18
2022/06/18 03:42:56;;;;;;;5.05;4.55;;;;;;;;;;7330538;19;153569;-18
2022/06/18 03:45:31;;;;;;;5.68;5.18;;;;;;;;;;7333285;19;161934;-17
2022/06/18 03:48:03;;;;;;;4.65;4.00;;;;;;;;;;7330374;19;162489;-18
2022/06/18 03:50:34;;;;;;;6.75;4.75;;;;;;;;;;7330711;19;154641;-18
2022/06/18 03:53:06;;;;;;;5.75;4.32;;;;;;;;;;7331750;19;153683;-18
2022/06/18 03:55:37;;;;;;;4.82;4.32;;;;;;;;;;7330971;19;161828;-18
2022/06/18 03:58:10;;;;;;;5.45;4.30;;;;;;;;;;7329953;19;162397;-18
2022/06/18 04:00:45;;;;;;;6.90;4.90;;;;;;;;;;7330400;19;154126;-18
2022/06/18 04:03:16;;;;;;;5.55;4.40;;;;;;;;;;7330146;19;154296;-19
2022/06/18 04:05:48;;;;;;;4.83;4.40;;;;;;;;;;7328488;19;161806;-18
2022/06/18 04:08:20;;;;;;;5.33;4.57;;;;;;;;;;7329552;19;162460;-18
2022/06/18 04:11:03;;;;;;;5.40;4.70;;;;;;;;;;7330359;19;154147;-18
2022/06/18 04:13:34;;;;;;;5.13;4.63;;;;;;;;;;7331206;19;153659;-18
2022/06/18 04:16:26;;;;;;;6.38;4.32;;;;;;;;;;7329648;19;161789;-18
2022/06/18 04:18:59;;;;;;;5.85;4.72;;;;;;;;;;7329654;19;162464;-18
2022/06/18 04:21:30;;;;;;;4.88;4.15;;;;;;;;;;7330001;19;154025;-18
2022/06/18 04:24:01;;;;;;;4.88;4.25;;;;;;;;;;7329729;19;153793;-18
2022/06/18 04:26:33;;;;;;;5.68;4.60;;;;;;;;;;7329176;19;162119;-18
2022/06/18 04:29:05;;;;;;;5.60;4.80;;;;;;;;;;7329025;19;162590;-19
2022/06/18 04:31:39;;;;;;;10.85;5.28;;;;;;;;;;7330600;19;154118;-17
2022/06/18 04:34:11;;;;;;;5.78;4.38;;;;;;;;;;7329242;19;153645;-18
2022/06/18 04:37:00;;;;;;;6.43;4.57;;;;;;;;;;7328720;19;161907;-18
2022/06/18 04:39:38;;;;;;;5.68;4.78;;;;;;;;;;7330481;19;162691;-17
2022/06/18 04:42:18;;;;;;;6.43;4.60;;;;;;;;;;7332967;19;154222;-18
2022/06/18 04:44:51;;;;;;;5.22;4.53;;;;;;;;;;7332696;19;153295;-17
2022/06/18 04:47:42;;;;;;;4.72;4.32;;;;;;;;;;7331992;19;161989;-17
2022/06/18 04:50:19;;;;;;;6.15;4.68;;;;;;;;;;7331581;19;162595;-18
2022/06/18 04:52:50;;;;;;;4.53;4.10;;;;;;;;;;7332476;19;154186;-18
2022/06/18 04:55:23;;;;;;;4.87;4.27;;;;;;;;;;7331944;19;154815;-17
2022/06/18 04:57:54;;;;;;;5.07;4.53;;;;;;;;;;7330652;19;161997;-17
2022/06/18 05:00:26;;;;;;;6.38;4.60;;;;;;;;;;7331580;19;163228;-18
2022/06/18 05:03:21;;;;;;;5.47;4.70;;;;;;;;;;7331445;19;155896;-18
2022/06/18 05:06:18;;;;;;;4.17;3.80;;;;;;;;;;7332196;19;153717;-18
2022/06/18 05:09:28;;;;;;;5.53;4.25;;;;;;;;;;7331184;19;162197;-18
2022/06/18 05:12:22;;;;;;;5.40;4.38;;;;;;;;;;7331604;19;162506;-18
2022/06/18 05:15:09;;;;;;;5.10;4.03;;;;;;;;;;7331650;19;154133;-17
2022/06/18 05:17:44;;;;;;;5.47;4.50;;;;;;;;;;7334494;19;153623;-18
2022/06/18 05:20:21;;;;;;;6.28;4.65;;;;;;;;;;7338223;19;161963;-18
2022/06/18 05:22:56;;;;;;;5.53;4.10;;;;;;;;;;7337632;19;162483;-17
2022/06/18 05:25:28;;;;;;;4.93;4.43;;;;;;;;;;7336885;19;154173;-17
2022/06/18 05:28:00;;;;;;;5.20;4.38;;;;;;;;;;7334627;19;153818;-18
2022/06/18 05:30:35;;;;;;;5.00;4.55;;;;;;;;;;7334078;19;161913;-18
2022/06/18 05:33:08;;;;;;;8.75;5.82;;;;;;;;;;7333962;19;162388;-18
2022/06/18 05:35:49;;;;;;;14.50;6.05;;;;;;;;;;7334734;19;154133;-17
2022/06/18 05:38:24;;;;;;;15.05;7.25;;;;;;;;;;7332715;19;153822;-18
2022/06/18 05:40:56;;;;;;;13.90;6.72;;;;;;;;;;7333624;19;161740;-18
2022/06/18 05:43:27;;;;;;;11.75;6.70;;;;;;;;;;7336840;19;162453;-18
2022/06/18 05:45:58;;;;;;;11.18;7.32;;;;;;;;;;7333740;19;154258;-17
2022/06/18 05:48:30;;;;;;;14.35;7.70;;;;;;;;;;7333547;19;153606;-17
2022/06/18 05:51:04;;;;;;;19.17;7.85;;;;;;;;;;7332366;19;161627;-17
2022/06/18 05:53:36;;;;;;;17.95;8.80;;;;;;;;;;7332142;19;162443;-17
2022/06/18 05:56:26;;;;;;;22.52;8.90;;;;;;;;;;7333171;19;154093;-17
2022/06/18 05:59:06;;;;;;;20.88;8.50;;;;;;;;;;7332428;19;153603;-18
2022/06/18 06:01:41;;;;;;;18.15;8.75;;;;;;;;;;7332994;19;161830;-17
2022/06/18 06:04:12;;;;;;;20.88;9.15;;;;;;;;;;7334162;19;162525;-18
2022/06/18 06:06:46;;;;;;;19.50;9.70;;;;;;;;;;7333361;19;154374;-18
2022/06/18 06:11:28;;;;;;;22.80;9.82;;;;;;;;;;7334423;19;153697;-17
2022/06/18 06:12:10;;;;;;;19.13;10.48;;;;;;;;;;7332874;19;162090;-17
2022/06/18 06:14:42;;;;;;;19.92;9.93;;;;;;;;;;7332357;19;162375;-18
2022/06/18 06:17:14;;;;;;;;;;;;;;;;;;7333022;19;154111;-17
2022/06/18 06:19:45;;;;;;;27.23;9.32;;;;;;;;;;7333067;19;153361;-17
2022/06/18 06:22:19;;;;;;;18.58;8.65;;;;;;;;;;7333570;19;161758;-18
2022/06/18 06:24:50;;;;;;;18.88;10.65;;;;;;;;;;7333683;19;162652;-18
2022/06/18 06:27:21;;;;;;;18.38;10.43;;;;;;;;;;7332728;19;154404;-17
2022/06/18 06:29:52;;;;;;;19.92;9.73;;;;;;;;;;7334069;19;153573;-18
2022/06/18 06:32:24;;;;;;;26.52;9.98;;;;;;;;;;7333374;19;162051;-18
2022/06/18 06:34:55;;;;;;;21.98;10.82;;;;;;;;;;7333282;19;162372;-18
2022/06/18 06:37:29;;;;;;;23.13;10.48;;;;;;;;;;7333694;19;153820;-17
2022/06/18 06:40:00;;;;;;;21.05;11.38;;;;;;;;;;7333586;19;153865;-17
2022/06/18 06:42:31;;;;;;;21.67;10.10;;;;;;;;;;7332171;19;161791;-18
2022/06/18 06:45:02;;;;;;;19.30;11.52;;;;;;;;;;7333111;19;162628;-18
2022/06/18 06:47:34;;;;;;;24.27;11.07;;;;;;;;;;7333459;19;154046;-18
2022/06/18 06:50:05;;;;;;;20.80;11.32;;;;;;;;;;7333170;19;153950;-17
2022/06/18 06:52:39;;;;;;;21.33;11.43;;;;;;;;;;7332650;19;162004;-17
2022/06/18 06:58:00;;;;;;;21.75;10.88;;;;;;;;;;7332549;19;154139;-17
2022/06/18 07:00:32;;;;;;;20.27;10.18;;;;;;;;;;7333001;19;153536;-17
2022/06/18 07:03:03;;;;;;;20.40;9.97;;;;;;;;;;7332348;19;161789;-17
2022/06/18 07:05:35;;;;;;;20.40;10.32;;;;;;;;;;7332122;19;162538;-17
2022/06/18 07:08:09;;;;;;;23.17;9.82;;;;;;;;;;7332487;19;154401;-16
2022/06/18 07:10:40;;;;;;;21.58;9.05;;;;;;;;;;7332209;19;153518;-16
2022/06/18 07:13:11;;;;;;;21.33;9.27;;;;;;;;;;7331371;19;161951;-17
2022/06/18 07:15:43;;;;;;;16.33;8.82;;;;;;;;;;7331348;19;162533;-17
2022/06/18 07:18:18;;;;;;;18.45;8.68;;;;;;;;;;7332225;19;154329;-17
2022/06/18 07:20:50;;;;;;;19.77;9.60;;;;;;;;;;7334837;19;153892;-16
2022/06/18 07:23:24;;;;;;;18.88;9.20;;;;;;;;;;7333082;19;161868;-17
2022/06/18 07:25:55;;;;;;;19.88;8.88;;;;;;;;;;7333442;19;163311;-18
2022/06/18 07:28:26;;;;;;;17.73;8.00;;;;;;;;;;7330675;19;154437;-18
2022/06/18 07:30:58;;;;;;;15.90;8.63;;;;;;;;;;7327993;19;153638;-17
2022/06/18 07:33:30;;;;;;;16.05;7.97;;;;;;;;;;7331293;19;161781;-18
2022/06/18 07:36:01;;;;;;;;;;;;;;;;;;7331917;19;162652;-18
2022/06/18 07:38:35;;;;;;;13.98;7.47;;;;;;;;;;7329750;19;154324;-18
2022/06/18 07:41:08;;;;;;;19.20;7.70;;;;;;;;;;7330986;19;153582;-18
2022/06/18 07:43:42;;;;;;;15.45;8.05;;;;;;;;;;7331180;19;161738;-17
2022/06/18 07:46:13;;;;;;;17.33;8.15;;;;;;;;;;7330954;19;162326;-18
2022/06/18 07:48:44;;;;;;;17.27;8.43;;;;;;;;;;7335449;19;154113;-18
2022/06/18 07:51:16;;;;;;;18.33;7.75;;;;;;;;;;7331164;19;153779;-18
2022/06/18 07:53:50;;;;;;;17.00;7.77;;;;;;;;;;7329810;19;161862;-18
2022/06/18 07:56:21;;;;;;;15.30;7.93;;;;;;;;;;7330946;19;162514;-17
2022/06/18 07:58:53;;;;;;;15.80;7.28;;;;;;;;;;7330402;19;153965;-17
2022/06/18 08:01:24;;;;;;;14.43;7.53;;;;;;;;;;7331228;19;153645;-18
2022/06/18 08:03:55;;;;;;;11.65;7.50;;;;;;;;;;7331025;19;162577;-19
2022/06/18 08:06:27;;;;;;;15.15;8.02;;;;;;;;;;7330606;19;162362;-17
2022/06/18 08:09:00;;;;;;;14.05;8.07;;;;;;;;;;7330783;19;154138;-17
2022/06/18 08:11:32;;;;;;;13.32;7.35;;;;;;;;;;7331166;19;153537;-19
2022/06/18 08:14:03;;;;;;;14.60;7.15;;;;;;;;;;7330359;19;162081;-17
2022/06/18 08:16:35;;;;;;;16.10;7.40;;;;;;;;;;7329008;19;162302;-16
2022/06/18 08:19:06;;;;;;;14.90;7.60;;;;;;;;;;7329813;19;153843;-17
2022/06/18 08:21:42;;;;;;;17.38;7.80;;;;;;;;;;7330540;19;153645;-17
2022/06/18 08:24:20;;;;;;;16.73;7.30;;;;;;;;;;7329978;19;161675;-16
2022/06/18 08:26:53;;;;;;;15.93;6.88;;;;;;;;;;7330044;19;162089;-17
2022/06/18 08:29:27;;;;;;;15.93;8.18;;;;;;;;;;7329973;19;154283;-17
2022/06/18 08:31:58;;;;;;;14.60;7.60;;;;;;;;;;7330294;19;153602;-17
2022/06/18 08:34:30;;;;;;;16.33;7.72;;;;;;;;;;7329948;19;161717;-16
2022/06/18 08:37:02;;;;;;;14.10;7.25;;;;;;;;;;7329543;19;162390;-17
2022/06/18 08:39:37;;;;;;;11.55;6.65;;;;;;;;;;7329015;19;154009;-17
2022/06/18 08:42:30;;;;;;;13.48;7.60;;;;;;;;;;7329815;19;153473;-17
2022/06/18 08:45:29;;;;;;;15.00;7.65;;;;;;;;;;7329324;19;161968;-16
2022/06/18 08:48:17;;;;;;;12.73;7.28;;;;;;;;;;7329043;19;162420;-20
2022/06/18 08:50:57;;;;;;;11.55;6.43;;;;;;;;;;7328904;19;154038;-16
2022/06/18 08:53:59;;;;;;;12.35;7.32;;;;;;;;;;7328230;19;154144;-16
2022/06/18 08:56:39;;;;;;;13.35;6.32;;;;;;;;;;7328004;19;162008;-16
2022/06/18 08:59:20;;;;;;;11.93;7.00;;;;;;;;;;7328641;19;162445;-17
2022/06/18 09:01:59;;;;;;;13.77;7.25;;;;;;;;;;7329198;19;154516;-16
2022/06/18 09:04:43;;;;;;;15.80;7.18;;;;;;;;;;7327825;19;153686;-16
2022/06/18 09:07:40;;;;;;;14.30;7.38;;;;;;;;;;7329428;19;161977;-17
2022/06/18 09:10:24;;;;;;;13.98;7.30;;;;;;;;;;7328840;19;162443;-16
2022/06/18 09:13:00;;;;;;;13.35;7.07;;;;;;;;;;7328967;19;154356;-17
2022/06/18 09:15:37;;;;;;;13.68;6.80;;;;;;;;;;7328848;19;154061;-17
2022/06/18 09:18:15;;;;;;;11.02;6.80;;;;;;;;;;7326070;19;161998;-17
2022/06/18 09:20:51;;;;;;;12.75;6.97;;;;;;;;;;7326605;19;162344;-18
2022/06/18 09:23:28;;;;;;;14.90;7.07;;;;;;;;;;7328936;19;153955;-17
2022/06/18 09:26:02;;;;;;;11.45;7.05;;;;;;;;;;7328761;19;153292;-17
2022/06/18 09:28:38;;;;;;;13.75;6.20;;;;;;;;;;7328138;19;161878;-16
2022/06/18 09:31:15;;;;;;;15.18;7.07;;;;;;;;;;7328041;19;162435;-17
2022/06/18 09:33:52;;;;;;;12.80;6.72;;;;;;;;;;7328566;19;154170;-17
2022/06/18 09:36:26;;;;;;;12.30;6.97;;;;;;;;;;7327601;19;153643;-16
2022/06/18 09:39:07;;;;;;;15.05;7.38;;;;;;;;;;7331552;19;161572;-17
2022/06/18 09:41:45;;;;;;;10.88;6.47;;;;;;;;;;7324877;19;162759;-18
2022/06/18 09:44:25;;;;;;;11.18;6.57;;;;;;;;;;7326817;19;154157;-18
2022/06/18 09:47:02;;;;;;;13.90;7.32;;;;;;;;;;7327997;19;153381;-18
2022/06/18 09:49:33;;;;;;;7.90;5.88;;;;;;;;;;7327388;19;161827;-18
2022/06/18 09:52:10;;;;;;;11.32;6.75;;;;;;;;;;7327322;19;162497;-17
2022/06/18 09:54:47;;;;;;;10.88;6.45;;;;;;;;;;7327800;19;154011;-18
2022/06/18 09:57:21;;;;;;;11.35;6.20;;;;;;;;;;7327696;19;153549;-18
2022/06/18 10:00:03;;;;;;;12.38;6.85;;;;;;;;;;7325702;19;162034;-17
2022/06/18 10:02:43;;;;;;;10.90;6.88;;;;;;;;;;7329195;19;162127;-18
2022/06/18 10:08:05;;;;;;;11.07;5.63;;;;;;;;;;7334244;19;153659;-17
2022/06/18 10:10:38;;;;;;;10.93;6.75;;;;;;;;;;7333667;19;162145;-18
2022/06/18 10:13:18;;;;;;;10.82;6.32;;;;;;;;;;7333751;19;162358;-17
2022/06/18 10:15:52;;;;;;;8.30;5.85;;;;;;;;;;7334227;19;154049;-18
2022/06/18 10:18:46;;;;;;;10.00;6.47;;;;;;;;;;7331731;19;153758;-18
2022/06/18 10:21:23;;;;;;;10.23;6.63;;;;;;;;;;7332182;19;161804;-18
2022/06/18 10:24:04;;;;;;;8.88;5.88;;;;;;;;;;7333545;19;162514;-18
2022/06/18 10:26:44;;;;;;;8.15;6.07;;;;;;;;;;7334102;19;154047;-18
2022/06/18 10:29:23;;;;;;;10.20;5.75;;;;;;;;;;7333633;19;153622;-17
2022/06/18 10:32:10;;;;;;;10.80;6.22;;;;;;;;;;7333326;19;161859;-18
2022/06/18 10:35:04;;;;;;;10.18;6.25;;;;;;;;;;7333199;19;162526;-17
2022/06/18 10:37:45;;;;;;;8.77;5.35;;;;;;;;;;7333711;19;154334;-18
2022/06/18 10:40:37;;;;;;;9.45;5.78;;;;;;;;;;7333094;19;154059;-18
2022/06/18 10:43:26;;;;;;;11.57;6.47;;;;;;;;;;7333185;19;161959;-17
2022/06/18 10:46:00;;;;;;;9.32;6.47;;;;;;;;;;7332540;19;163584;-18
2022/06/18 10:48:35;;;;;;;13.05;6.53;;;;;;;;;;7333276;19;154190;-18
2022/06/18 10:51:06;;;;;;;9.60;6.40;;;;;;;;;;7333106;19;153474;-17
2022/06/18 10:53:47;;;;;;;10.95;6.28;;;;;;;;;;7332619;19;161834;-17
2022/06/18 10:56:21;;;;;;;6.57;5.00;;;;;;;;;;7331242;19;162518;-17
2022/06/18 10:58:54;;;;;;;7.80;5.30;;;;;;;;;;7332992;19;154337;-18
2022/06/18 11:01:32;;;;;;;10.07;6.03;;;;;;;;;;7331821;19;153611;-18
2022/06/18 11:04:19;;;;;;;6.88;5.25;;;;;;;;;;7332555;19;161957;-18
2022/06/18 11:06:55;;;;;;;5.80;4.88;;;;;;;;;;7332377;19;162406;-18
2022/06/18 11:09:29;;;;;;;8.63;5.57;;;;;;;;;;7332747;19;153975;-17
2022/06/18 11:12:05;;;;;;;10.50;5.35;;;;;;;;;;7332475;19;153665;-18
2022/06/18 11:14:42;;;;;;;11.18;5.72;;;;;;;;;;7331944;19;162072;-17
2022/06/18 11:17:21;;;;;;;7.80;5.72;;;;;;;;;;7330588;19;162356;-17
2022/06/18 11:19:55;;;;;;;7.97;5.55;;;;;;;;;;7332339;19;154384;-18
2022/06/18 11:22:31;;;;;;;9.38;6.07;;;;;;;;;;7329428;19;153553;-17
2022/06/18 11:25:06;;;;;;;7.55;5.50;;;;;;;;;;7331857;19;161873;-18
2022/06/18 11:27:39;;;;;;;10.30;5.55;;;;;;;;;;7331660;19;162358;-18
2022/06/18 11:30:20;;;;;;;6.60;4.97;;;;;;;;;;7332027;19;154220;-18
2022/06/18 11:32:52;;;;;;;7.00;5.55;;;;;;;;;;7333596;19;153627;-19
2022/06/18 11:35:29;;;;;;;7.45;5.43;;;;;;;;;;7334845;19;161998;-17
2022/06/18 11:38:02;;;;;;;7.38;5.55;;;;;;;;;;7331530;19;162350;-17
2022/06/18 11:40:34;;;;;;;7.35;5.13;;;;;;;;;;7331781;19;154477;-18
2022/06/18 11:43:09;;;;;;;8.88;5.90;;;;;;;;;;7329334;19;153507;-18
2022/06/18 11:45:45;;;;;;;7.32;5.25;;;;;;;;;;7331311;19;162143;-19
2022/06/18 11:48:26;;;;;;;8.10;5.07;;;;;;;;;;7331207;19;162440;-18
2022/06/18 11:51:05;;;;;;;7.35;5.97;;;;;;;;;;7331347;19;154163;-18
2022/06/18 11:53:43;;;;;;;8.20;5.70;;;;;;;;;;7331590;19;153517;-18
2022/06/18 11:56:20;;;;;;;6.70;5.43;;;;;;;;;;7331010;19;161587;-18
2022/06/18 11:58:57;;;;;;;7.10;5.28;;;;;;;;;;7330877;19;162584;-18
2022/06/18 12:01:34;;;;;;;7.35;5.30;;;;;;;;;;7331588;19;154197;-18
2022/06/18 12:04:16;;;;;;;6.95;5.60;;;;;;;;;;7331106;19;153522;-18
2022/06/18 12:06:57;;;;;;;5.72;5.18;;;;;;;;;;7330721;19;162089;-18
2022/06/18 12:09:30;;;;;;;8.20;5.10;;;;;;;;;;7330501;19;162383;-18
2022/06/18 12:12:20;;;;;;;8.18;5.70;;;;;;;;;;7330830;19;153989;-18
2022/06/18 12:14:58;;;;;;;6.88;5.07;;;;;;;;;;7330766;19;153735;-19
2022/06/18 12:17:35;;;;;;;6.40;4.65;;;;;;;;;;7328386;19;161975;-18
2022/06/18 12:20:17;;;;;;;6.85;5.00;;;;;;;;;;7330131;19;162375;-18
2022/06/18 12:23:00;;;;;;;7.65;5.30;;;;;;;;;;7329198;19;133714;-18
2022/06/18 12:25:41;;;;;;;7.10;5.05;;;;;;;;;;7328815;19;153545;-18
2022/06/18 12:28:24;;;;;;;9.75;5.18;;;;;;;;;;7330035;19;161899;-18
2022/06/18 12:30:58;;;;;;;9.38;5.47;;;;;;;;;;7330138;19;162913;-18
2022/06/18 12:33:34;;;;;;;6.32;5.18;;;;;;;;;;7330248;19;154037;-18
2022/06/18 12:36:11;;;;;;;6.10;4.82;;;;;;;;;;7329934;19;153729;-18
2022/06/18 12:39:01;;;;;;;7.45;5.32;;;;;;;;;;7328042;19;162157;-21
2022/06/18 12:41:44;;;;;;;7.07;5.30;;;;;;;;;;7329432;19;162884;-18
2022/06/18 12:44:32;;;;;;;5.63;4.55;;;;;;;;;;7329866;19;154148;-18
2022/06/18 12:47:08;;;;;;;6.00;4.22;;;;;;;;;;7329738;19;153591;-18
2022/06/18 12:49:48;;;;;;;5.65;4.88;;;;;;;;;;7329473;19;162168;-18
2022/06/18 12:52:27;;;;;;;6.22;4.43;;;;;;;;;;7329298;19;162655;-18
2022/06/18 12:55:17;;;;;;;5.60;4.28;;;;;;;;;;7329525;19;154139;-19
2022/06/18 12:58:00;;;;;;;6.05;4.80;;;;;;;;;;7329359;19;153552;-18
2022/06/18 13:00:38;;;;;;;6.28;4.97;;;;;;;;;;7329212;19;161861;-18
2022/06/18 13:03:32;;;;;;;5.97;4.68;;;;;;;;;;7327542;19;162363;-18
2022/06/18 13:06:09;;;;;;;6.22;4.88;;;;;;;;;;7329593;19;154000;-18
2022/06/18 13:08:51;;;;;;;5.60;4.65;;;;;;;;;;7329095;19;153681;-18
2022/06/18 13:11:34;;;;;;;5.68;4.68;;;;;;;;;;7328869;19;161949;-18
2022/06/18 13:14:22;;;;;;;6.47;4.60;;;;;;;;;;7328611;19;162518;-18
2022/06/18 13:16:58;;;;;;;7.32;4.70;;;;;;;;;;7327937;19;154032;-21
2022/06/18 13:19:35;;;;;;;7.45;5.45;;;;;;;;;;7328752;19;153502;-19
2022/06/18 13:22:07;;;;;;;6.25;5.13;;;;;;;;;;7328117;19;161797;-18
2022/06/18 13:30:24;;;;;;;;;;;;;;;;;;7329020;19;153552;-18
2022/06/18 13:33:04;;;;;;;6.22;5.10;;;;;;;;;;7329283;19;162259;-18
2022/06/18 13:35:39;;;;;;;6.82;5.30;;;;;;;;;;7328099;19;162431;-18
2022/06/18 13:38:19;;;;;;;5.60;4.60;;;;;;;;;;7332350;19;154146;-18
2022/06/18 13:40:57;;;;;;;5.75;4.95;;;;;;;;;;7335295;19;153581;-18
2022/06/18 13:43:45;;;;;;;7.15;5.30;;;;;;;;;;7333716;19;162004;-18
2022/06/18 13:46:23;;;;;;;6.57;4.35;;;;;;;;;;7334875;19;163148;-18
2022/06/18 13:49:06;;;;;;;8.18;5.00;;;;;;;;;;7334012;19;154409;-17
2022/06/18 13:51:40;;;;;;;9.25;5.03;;;;;;;;;;7335001;19;153554;-18
2022/06/18 13:54:14;;;;;;;8.07;4.80;;;;;;;;;;7334519;19;161858;-19
2022/06/18 13:56:58;;;;;;;9.02;5.00;;;;;;;;;;7334477;19;162332;-17
2022/06/18 13:59:35;;;;;;;7.03;5.15;;;;;;;;;;7335052;19;154182;-18
2022/06/18 14:02:14;;;;;;;7.45;5.20;;;;;;;;;;7334455;19;153974;-18
2022/06/18 14:04:45;;;;;;;8.57;4.85;;;;;;;;;;7331885;19;161811;-18
2022/06/18 14:07:18;;;;;;;7.90;5.15;;;;;;;;;;7332981;19;162653;-18
2022/06/18 14:09:53;;;;;;;11.18;5.25;;;;;;;;;;7334404;19;154138;-18
2022/06/18 14:12:29;;;;;;;7.38;5.03;;;;;;;;;;7334059;19;153837;-17
2022/06/18 14:15:20;;;;;;;11.18;4.97;;;;;;;;;;7333603;19;161970;-18
2022/06/18 14:17:54;;;;;;;6.90;4.80;;;;;;;;;;7331385;19;162313;-18
2022/06/18 14:20:28;;;;;;;11.38;5.80;;;;;;;;;;7333931;19;154001;-18
2022/06/18 14:23:06;;;;;;;6.20;5.00;;;;;;;;;;7333384;19;153598;-18
2022/06/18 14:25:47;;;;;;;9.43;5.28;;;;;;;;;;7333730;19;161983;-18
2022/06/18 14:28:26;;;;;;;10.00;5.57;;;;;;;;;;7333604;19;162609;-17
2022/06/18 14:31:06;;;;;;;10.20;5.57;;;;;;;;;;7333950;19;153815;-18
2022/06/18 14:33:45;;;;;;;13.32;5.32;;;;;;;;;;7333627;19;153437;-18
2022/06/18 14:36:19;;;;;;;9.40;5.10;;;;;;;;;;7333490;19;161868;-18
2022/06/18 14:38:52;;;;;;;7.15;5.10;;;;;;;;;;7333419;19;162278;-18
2022/06/18 14:41:38;;;;;;;8.55;5.70;;;;;;;;;;7333918;19;154299;-19
2022/06/18 14:44:23;;;;;;;9.77;5.30;;;;;;;;;;7332287;19;153501;-18
2022/06/18 14:47:26;;;;;;;9.10;5.18;;;;;;;;;;7332906;19;161811;-18
2022/06/18 14:50:16;;;;;;;12.98;5.45;;;;;;;;;;7330879;19;162432;-18
2022/06/18 14:53:02;;;;;;;13.75;5.55;;;;;;;;;;7333402;19;153990;-18
2022/06/18 14:55:42;;;;;;;11.10;5.35;;;;;;;;;;7333297;19;154133;-19
2022/06/18 14:58:57;;;;;;;9.30;5.22;;;;;;;;;;7332807;19;161412;-18
2022/06/18 15:01:46;;;;;;;10.35;5.20;;;;;;;;;;7332444;19;162504;-18
2022/06/18 15:04:26;;;;;;;9.40;5.15;;;;;;;;;;7331883;19;153934;-18
2022/06/18 15:06:57;;;;;;;11.80;5.53;;;;;;;;;;7332834;19;153617;-18
2022/06/18 15:09:33;;;;;;;6.70;4.88;;;;;;;;;;7332333;19;162117;-18
2022/06/18 15:12:04;;;;;;;11.93;5.18;;;;;;;;;;7332243;19;162452;-18
2022/06/18 15:14:42;;;;;;;10.30;4.88;;;;;;;;;;7331391;19;154004;-18
2022/06/18 15:17:33;;;;;;;11.48;5.18;;;;;;;;;;7330992;19;154368;-18
2022/06/18 15:20:31;;;;;;;8.40;4.80;;;;;;;;;;7332071;19;161995;-18
2022/06/18 15:23:07;;;;;;;9.32;5.03;;;;;;;;;;7333023;19;162529;-18
2022/06/18 15:25:43;;;;;;;9.20;5.25;;;;;;;;;;7329669;19;154748;-18
2022/06/18 15:28:22;;;;;;;12.88;5.32;;;;;;;;;;7334397;19;153705;-18
2022/06/18 15:31:06;;;;;;;6.57;4.63;;;;;;;;;;7331583;19;161921;-18
2022/06/18 15:33:48;;;;;;;9.77;4.80;;;;;;;;;;7331360;19;162379;-18
2022/06/18 15:36:26;;;;;;;11.48;5.70;;;;;;;;;;7331877;19;153893;-18
2022/06/18 15:39:00;;;;;;;8.00;5.00;;;;;;;;;;7331720;19;153546;-18